createdAt,value
2018-02-25T00:01:14.842Z,5.87
2018-02-25T00:03:43.358Z,6.70
2018-02-25T00:06:10.880Z,6.70
2018-02-25T00:08:38.391Z,5.17
2018-02-25T00:11:06.659Z,8.43
2018-02-25T00:13:34.335Z,6.97
2018-02-25T00:16:02.063Z,4.60
2018-02-25T00:18:29.571Z,3.30
2018-02-25T00:20:57.091Z,4.37
2018-02-25T00:23:24.641Z,3.60
2018-02-25T00:25:52.182Z,3.27
2018-02-25T00:28:19.770Z,7.83
2018-02-25T00:30:47.312Z,6.70
2018-02-25T00:33:14.846Z,6.17
2018-02-25T00:35:42.345Z,9.97
2018-02-25T00:38:09.873Z,8.57
2018-02-25T00:40:37.416Z,3.97
2018-02-25T00:43:04.979Z,6.53
2018-02-25T00:45:32.558Z,4.97
2018-02-25T00:48:00.216Z,4.83
2018-02-25T00:50:28.552Z,6.33
2018-02-25T00:52:56.096Z,5.70
2018-02-25T00:55:23.644Z,7.90
2018-02-25T00:57:51.208Z,9.20
2018-02-25T01:00:18.720Z,6.80
2018-02-25T01:02:46.251Z,9.33
2018-02-25T01:05:13.801Z,6.17
2018-02-25T01:07:41.415Z,6.33
2018-02-25T01:10:09.009Z,5.53
2018-02-25T01:12:36.528Z,8.50
2018-02-25T01:15:04.247Z,7.57
2018-02-25T01:17:32.384Z,8.30
2018-02-25T01:19:59.961Z,7.00
2018-02-25T01:22:27.471Z,6.10
2018-02-25T01:24:56.640Z,11.17
2018-02-25T01:27:25.354Z,6.60
2018-02-25T01:29:52.906Z,5.70
2018-02-25T01:32:20.580Z,8.13
2018-02-25T01:34:48.131Z,5.17
2018-02-25T01:37:15.865Z,6.07
2018-02-25T01:39:43.420Z,5.50
2018-02-25T01:42:10.919Z,6.90
2018-02-25T01:44:38.498Z,6.07
2018-02-25T01:47:06.177Z,9.83
2018-02-25T01:49:33.731Z,7.17
2018-02-25T01:52:01.320Z,6.17
2018-02-25T01:54:28.848Z,5.70
2018-02-25T01:56:56.365Z,8.67
2018-02-25T01:59:23.995Z,10.37
2018-02-25T02:01:51.733Z,6.17
2018-02-25T02:04:19.233Z,7.67
2018-02-25T02:06:47.183Z,6.40
2018-02-25T02:09:14.721Z,5.27
2018-02-25T02:11:42.297Z,6.37
2018-02-25T02:14:09.880Z,3.93
2018-02-25T02:16:37.535Z,6.30
2018-02-25T02:19:05.095Z,7.07
2018-02-25T02:21:32.626Z,9.37
2018-02-25T02:24:00.166Z,8.73
2018-02-25T02:26:27.820Z,7.40
2018-02-25T02:28:55.324Z,7.27
2018-02-25T02:31:22.903Z,6.73
2018-02-25T02:33:51.234Z,9.57
2018-02-25T02:36:18.752Z,7.83
2018-02-25T02:38:46.374Z,10.13
2018-02-25T02:41:15.239Z,7.47
2018-02-25T02:43:42.847Z,6.83
2018-02-25T02:46:10.667Z,6.50
2018-02-25T02:48:38.931Z,4.53
2018-02-25T02:51:07.409Z,8.53
2018-02-25T02:53:35.560Z,5.40
2018-02-25T02:56:03.090Z,7.57
2018-02-25T02:58:30.625Z,3.80
2018-02-25T03:00:58.144Z,8.70
2018-02-25T03:03:26.455Z,9.10
2018-02-25T03:05:53.980Z,5.53
2018-02-25T03:08:21.870Z,10.60
2018-02-25T03:10:50.215Z,6.93
2018-02-25T03:13:17.774Z,5.50
2018-02-25T03:15:45.441Z,8.30
2018-02-25T03:18:12.950Z,6.17
2018-02-25T03:20:40.460Z,4.23
2018-02-25T03:23:09.079Z,6.47
2018-02-25T03:25:37.332Z,9.57
2018-02-25T03:28:05.942Z,4.93
2018-02-25T03:30:33.452Z,5.63
2018-02-25T03:33:01.013Z,8.30
2018-02-25T03:35:28.632Z,6.47
2018-02-25T03:37:56.289Z,10.30
2018-02-25T03:40:24.166Z,7.00
2018-02-25T03:42:51.700Z,9.53
2018-02-25T03:45:19.998Z,8.60
2018-02-25T03:47:47.544Z,8.33
2018-02-25T03:50:15.346Z,6.77
2018-02-25T03:52:42.928Z,7.40
2018-02-25T03:55:10.588Z,5.07
2018-02-25T03:57:38.117Z,5.60
2018-02-25T04:00:05.658Z,6.93
2018-02-25T04:02:33.235Z,6.37
2018-02-25T04:05:00.777Z,9.40
2018-02-25T04:07:28.316Z,7.90
2018-02-25T04:09:55.833Z,3.80
2018-02-25T04:12:23.746Z,7.53
2018-02-25T04:14:51.293Z,9.17
2018-02-25T04:17:19.560Z,9.27
2018-02-25T04:19:47.098Z,7.07
2018-02-25T04:22:14.721Z,6.93
2018-02-25T04:24:42.346Z,7.40
2018-02-25T04:27:09.948Z,14.33
2018-02-25T04:29:37.540Z,7.93
2018-02-25T04:32:05.346Z,8.83
2018-02-25T04:34:33.820Z,7.80
2018-02-25T04:37:02.160Z,7.07
2018-02-25T04:39:29.677Z,7.10
2018-02-25T04:41:57.230Z,9.27
2018-02-25T04:44:25.636Z,7.20
2018-02-25T04:46:53.136Z,8.30
2018-02-25T04:49:21.526Z,6.40
2018-02-25T04:51:51.369Z,7.67
2018-02-25T04:54:22.580Z,9.53
2018-02-25T04:56:50.182Z,8.40
2018-02-25T04:59:17.952Z,7.33
2018-02-25T05:01:46.256Z,7.53
2018-02-25T05:04:13.769Z,7.70
2018-02-25T05:06:41.395Z,8.73
2018-02-25T05:09:08.895Z,9.33
2018-02-25T05:11:36.412Z,4.80
2018-02-25T05:14:03.969Z,10.77
2018-02-25T05:16:31.506Z,8.43
2018-02-25T05:18:59.074Z,8.47
2018-02-25T05:21:26.671Z,10.83
2018-02-25T05:23:54.225Z,8.20
2018-02-25T05:26:21.803Z,11.90
2018-02-25T05:28:49.407Z,10.13
2018-02-25T05:31:16.998Z,12.00
2018-02-25T05:33:44.536Z,8.20
2018-02-25T05:36:12.080Z,9.23
2018-02-25T05:38:39.789Z,9.07
2018-02-25T05:41:07.357Z,9.40
2018-02-25T05:43:35.189Z,8.50
2018-02-25T05:46:02.744Z,4.53
2018-02-25T05:48:30.370Z,7.23
2018-02-25T05:50:57.899Z,8.43
2018-02-25T05:53:26.194Z,7.37
2018-02-25T05:55:53.719Z,11.03
2018-02-25T05:58:21.297Z,7.93
2018-02-25T06:00:49.592Z,10.30
2018-02-25T06:03:19.691Z,11.53
2018-02-25T06:05:47.331Z,9.13
2018-02-25T06:08:14.844Z,8.50
2018-02-25T06:10:42.387Z,10.27
2018-02-25T06:13:10.016Z,8.13
2018-02-25T06:15:37.845Z,10.20
2018-02-25T06:18:05.351Z,6.90
2018-02-25T06:20:32.860Z,10.20
2018-02-25T06:23:02.066Z,9.43
2018-02-25T06:25:30.022Z,7.30
2018-02-25T06:27:57.585Z,9.97
2018-02-25T06:30:25.106Z,9.97
2018-02-25T06:32:53.639Z,9.40
2018-02-25T06:35:21.160Z,7.63
2018-02-25T06:37:48.803Z,8.30
2018-02-25T06:40:16.320Z,10.27
2018-02-25T06:42:45.380Z,8.90
2018-02-25T06:45:12.994Z,9.47
2018-02-25T06:47:40.564Z,8.70
2018-02-25T06:50:09.030Z,8.03
2018-02-25T06:52:36.630Z,9.77
2018-02-25T06:55:04.269Z,8.17
2018-02-25T06:57:32.767Z,10.80
2018-02-25T07:00:01.413Z,9.27
2018-02-25T07:02:28.912Z,9.30
2018-02-25T07:04:56.454Z,9.20
2018-02-25T07:07:24.021Z,8.50
2018-02-25T07:09:51.825Z,9.17
2018-02-25T07:12:19.390Z,8.70
2018-02-25T07:14:46.910Z,8.53
2018-02-25T07:17:15.228Z,7.57
2018-02-25T07:19:42.783Z,7.43
2018-02-25T07:22:10.313Z,9.20
2018-02-25T07:24:37.862Z,9.67
2018-02-25T07:27:06.793Z,8.67
2018-02-25T07:29:34.559Z,8.60
2018-02-25T07:32:02.192Z,8.83
2018-02-25T07:34:29.721Z,7.80
2018-02-25T07:36:57.347Z,7.70
2018-02-25T07:39:26.082Z,8.20
2018-02-25T07:41:54.405Z,8.13
2018-02-25T07:44:21.965Z,9.27
2018-02-25T07:46:49.710Z,8.20
2018-02-25T07:49:17.995Z,8.47
2018-02-25T07:51:46.256Z,9.53
2018-02-25T07:54:13.829Z,9.00
2018-02-25T07:56:41.381Z,6.67
2018-02-25T07:59:08.896Z,8.73
2018-02-25T08:01:36.626Z,8.37
2018-02-25T08:04:04.161Z,5.50
2018-02-25T08:06:31.716Z,8.93
2018-02-25T08:08:59.266Z,6.60
2018-02-25T08:11:26.896Z,5.57
2018-02-25T08:13:54.436Z,5.03
2018-02-25T08:16:21.965Z,4.50
2018-02-25T08:18:49.500Z,6.73
2018-02-25T08:21:17.780Z,6.73
2018-02-25T08:23:46.068Z,4.57
2018-02-25T08:26:13.610Z,5.97
2018-02-25T08:28:41.108Z,6.60
2018-02-25T08:31:08.827Z,6.93
2018-02-25T08:33:36.611Z,5.63
2018-02-25T08:36:04.887Z,5.67
2018-02-25T08:38:32.427Z,16.63
2018-02-25T08:41:00.104Z,5.23
2018-02-25T08:43:28.397Z,10.90
2018-02-25T08:45:56.107Z,4.97
2018-02-25T08:48:23.616Z,7.30
2018-02-25T08:50:51.906Z,5.03
2018-02-25T08:53:19.508Z,6.83
2018-02-25T08:55:47.117Z,5.70
2018-02-25T08:58:14.698Z,4.90
2018-02-25T09:00:42.774Z,5.40
2018-02-25T09:03:10.315Z,4.47
2018-02-25T09:05:37.886Z,5.97
2018-02-25T09:08:05.421Z,4.77
2018-02-25T09:10:33.108Z,6.47
2018-02-25T09:13:00.642Z,4.80
2018-02-25T09:15:28.286Z,7.23
2018-02-25T09:17:56.216Z,5.30
2018-02-25T09:20:23.752Z,5.10
2018-02-25T09:22:51.297Z,3.97
2018-02-25T09:25:18.860Z,4.30
2018-02-25T09:27:46.401Z,6.77
2018-02-25T09:30:14.748Z,6.27
2018-02-25T09:32:42.354Z,6.53
2018-02-25T09:35:09.869Z,5.67
2018-02-25T09:37:37.424Z,5.30
2018-02-25T09:40:05.046Z,6.53
2018-02-25T09:42:32.568Z,5.20
2018-02-25T09:45:00.171Z,6.97
2018-02-25T09:47:27.757Z,5.00
2018-02-25T09:49:55.309Z,6.47
2018-02-25T09:52:23.310Z,4.20
2018-02-25T09:54:51.121Z,6.57
2018-02-25T09:57:18.690Z,4.10
2018-02-25T09:59:46.304Z,4.30
2018-02-25T10:02:13.996Z,5.50
2018-02-25T10:04:42.344Z,6.37
2018-02-25T10:07:09.856Z,4.47
2018-02-25T10:09:38.124Z,5.20
2018-02-25T10:12:05.647Z,4.20
2018-02-25T10:14:33.954Z,5.13
2018-02-25T10:17:01.501Z,4.87
2018-02-25T10:19:29.042Z,5.90
2018-02-25T10:21:56.733Z,6.13
2018-02-25T10:24:25.085Z,5.63
2018-02-25T10:26:52.644Z,3.20
2018-02-25T10:29:21.066Z,2.90
2018-02-25T10:31:48.645Z,2.83
2018-02-25T10:34:16.459Z,3.83
2018-02-25T10:36:44.105Z,4.57
2018-02-25T10:39:11.906Z,5.00
2018-02-25T10:41:39.438Z,6.17
2018-02-25T10:44:06.998Z,7.00
2018-02-25T10:46:35.367Z,6.67
2018-02-25T10:49:03.656Z,3.40
2018-02-25T10:51:31.938Z,4.50
2018-02-25T10:54:00.279Z,4.20
2018-02-25T10:56:27.864Z,4.97
2018-02-25T10:58:56.303Z,6.67
2018-02-25T11:01:23.848Z,3.70
2018-02-25T11:03:51.459Z,4.33
2018-02-25T11:06:19.015Z,4.60
2018-02-25T11:08:46.700Z,4.20
2018-02-25T11:11:14.239Z,5.37
2018-02-25T11:13:41.924Z,3.83
2018-02-25T11:16:09.575Z,4.33
2018-02-25T11:18:37.911Z,5.23
2018-02-25T11:21:05.710Z,8.03
2018-02-25T11:23:33.353Z,4.97
2018-02-25T11:26:00.935Z,4.90
2018-02-25T11:28:28.503Z,4.70
2018-02-25T11:30:56.301Z,4.70
2018-02-25T11:33:23.815Z,4.73
2018-02-25T11:35:51.436Z,6.23
2018-02-25T11:38:19.101Z,4.70
2018-02-25T11:40:46.647Z,4.43
2018-02-25T11:43:14.228Z,5.57
2018-02-25T11:45:41.772Z,4.10
2018-02-25T11:48:09.433Z,5.67
2018-02-25T11:50:37.027Z,6.57
2018-02-25T11:53:04.580Z,4.47
2018-02-25T11:55:32.301Z,5.53
2018-02-25T11:58:00.032Z,4.50
2018-02-25T12:00:28.392Z,4.83
2018-02-25T12:02:55.952Z,4.70
2018-02-25T12:05:23.542Z,4.43
2018-02-25T12:07:51.106Z,5.13
2018-02-25T12:10:18.646Z,7.17
2018-02-25T12:12:46.378Z,5.83
2018-02-25T12:15:13.962Z,5.10
2018-02-25T12:17:41.844Z,4.23
2018-02-25T12:20:09.383Z,4.30
2018-02-25T12:22:37.786Z,4.33
2018-02-25T12:25:05.559Z,4.97
2018-02-25T12:27:33.104Z,4.40
2018-02-25T12:30:00.803Z,6.63
2018-02-25T12:32:28.352Z,6.67
2018-02-25T12:34:56.334Z,4.73
2018-02-25T12:37:23.964Z,4.50
2018-02-25T12:39:51.468Z,3.60
2018-02-25T12:42:19.033Z,3.43
2018-02-25T12:44:46.739Z,4.73
2018-02-25T12:47:15.017Z,4.87
2018-02-25T12:49:43.367Z,2.70
2018-02-25T12:52:10.980Z,3.67
2018-02-25T12:54:38.509Z,4.97
2018-02-25T12:57:06.171Z,3.53
2018-02-25T12:59:34.785Z,5.80
2018-02-25T13:02:02.318Z,3.23
2018-02-25T13:04:30.885Z,3.60
2018-02-25T13:06:58.544Z,2.63
2018-02-25T13:09:26.370Z,4.43
2018-02-25T13:11:53.970Z,5.00
2018-02-25T13:14:21.701Z,3.60
2018-02-25T13:16:49.950Z,3.70
2018-02-25T13:19:17.510Z,2.80
2018-02-25T13:21:45.068Z,5.40
2018-02-25T13:24:13.432Z,2.93
2018-02-25T13:26:43.998Z,2.80
2018-02-25T13:29:11.744Z,4.43
2018-02-25T13:31:39.546Z,5.20
2018-02-25T13:34:07.373Z,3.30
2018-02-25T13:36:35.411Z,4.63
2018-02-25T13:39:04.027Z,5.13
2018-02-25T13:41:31.766Z,4.67
2018-02-25T13:43:59.284Z,3.30
2018-02-25T13:46:26.879Z,3.50
2018-02-25T13:48:54.510Z,3.93
2018-02-25T13:51:22.064Z,4.13
2018-02-25T13:53:49.643Z,3.57
2018-02-25T13:56:17.138Z,3.90
2018-02-25T13:58:45.664Z,2.97
2018-02-25T14:01:13.213Z,3.63
2018-02-25T14:03:40.768Z,3.30
2018-02-25T14:06:08.532Z,3.50
2018-02-25T14:08:36.086Z,4.60
2018-02-25T14:11:03.626Z,3.87
2018-02-25T14:13:31.328Z,4.03
2018-02-25T14:15:58.863Z,6.07
2018-02-25T14:18:26.409Z,7.43
2018-02-25T14:20:54.033Z,3.77
2018-02-25T14:23:21.563Z,4.90
2018-02-25T14:25:49.751Z,3.93
2018-02-25T14:28:17.553Z,5.07
2018-02-25T14:30:45.063Z,5.37
2018-02-25T14:33:12.609Z,5.10
2018-02-25T14:35:40.177Z,4.43
2018-02-25T14:38:07.695Z,3.90
2018-02-25T14:40:36.015Z,5.27
2018-02-25T14:43:03.530Z,4.37
2018-02-25T14:45:31.145Z,4.37
2018-02-25T14:47:58.725Z,4.90
2018-02-25T14:50:26.271Z,5.77
2018-02-25T14:52:53.807Z,3.43
2018-02-25T14:55:21.354Z,4.83
2018-02-25T14:57:48.894Z,3.60
2018-02-25T15:00:17.203Z,4.43
2018-02-25T15:02:44.735Z,4.13
2018-02-25T15:05:12.252Z,4.83
2018-02-25T15:07:39.939Z,7.37
2018-02-25T15:10:08.124Z,6.20
2018-02-25T15:12:35.667Z,4.23
2018-02-25T15:15:03.208Z,5.07
2018-02-25T15:17:30.871Z,9.13
2018-02-25T15:19:58.394Z,7.47
2018-02-25T15:22:25.943Z,10.77
2018-02-25T15:24:53.495Z,8.63
2018-02-25T15:27:21.061Z,5.80
2018-02-25T15:29:48.607Z,6.20
2018-02-25T15:32:16.136Z,9.33
2018-02-25T15:34:43.638Z,4.47
2018-02-25T15:37:11.165Z,5.10
2018-02-25T15:39:38.888Z,5.70
2018-02-25T15:42:06.452Z,5.87
2018-02-25T15:44:33.966Z,6.10
2018-02-25T15:47:02.463Z,4.93
2018-02-25T15:49:30.050Z,3.50
2018-02-25T15:51:57.838Z,3.77
2018-02-25T15:54:26.225Z,8.93
2018-02-25T15:56:53.851Z,4.50
2018-02-25T15:59:21.466Z,4.63
2018-02-25T16:01:49.071Z,4.03
2018-02-25T16:04:16.614Z,4.23
2018-02-25T16:06:44.306Z,4.43
2018-02-25T16:09:11.835Z,5.30
2018-02-25T16:11:39.392Z,4.47
2018-02-25T16:14:07.800Z,5.47
2018-02-25T16:16:36.277Z,3.77
2018-02-25T16:19:03.836Z,4.53
2018-02-25T16:21:31.740Z,5.30
2018-02-25T16:23:59.327Z,4.40
2018-02-25T16:26:27.610Z,6.50
2018-02-25T16:28:56.030Z,7.00
2018-02-25T16:31:24.369Z,6.40
2018-02-25T16:33:51.982Z,4.10
2018-02-25T16:36:19.478Z,4.47
2018-02-25T16:38:47.788Z,4.23
2018-02-25T16:41:15.489Z,5.30
2018-02-25T16:43:43.033Z,5.70
2018-02-25T16:46:10.800Z,5.37
2018-02-25T16:48:38.870Z,5.47
2018-02-25T16:51:06.404Z,4.53
2018-02-25T16:53:33.925Z,5.60
2018-02-25T16:56:01.541Z,4.70
2018-02-25T16:58:29.156Z,4.37
2018-02-25T17:00:57.400Z,5.60
2018-02-25T17:03:24.944Z,4.27
2018-02-25T17:05:53.428Z,3.93
2018-02-25T17:08:20.990Z,5.53
2018-02-25T17:10:48.588Z,6.90
2018-02-25T17:13:16.355Z,5.27
2018-02-25T17:15:44.710Z,5.73
2018-02-25T17:18:12.533Z,7.23
2018-02-25T17:20:40.201Z,5.33
2018-02-25T17:23:08.566Z,6.87
2018-02-25T17:25:36.127Z,5.90
2018-02-25T17:28:03.788Z,6.93
2018-02-25T17:30:31.565Z,4.60
2018-02-25T17:32:59.155Z,6.07
2018-02-25T17:35:27.180Z,5.30
2018-02-25T17:37:54.717Z,4.03
2018-02-25T17:40:23.055Z,4.67
2018-02-25T17:42:50.666Z,4.70
2018-02-25T17:45:18.972Z,3.63
2018-02-25T17:47:47.388Z,5.10
2018-02-25T17:50:15.547Z,6.00
2018-02-25T17:52:43.123Z,5.23
2018-02-25T17:55:10.722Z,9.80
2018-02-25T17:57:38.266Z,6.20
2018-02-25T18:00:05.785Z,10.73
2018-02-25T18:02:33.304Z,4.73
2018-02-25T18:05:01.000Z,5.87
2018-02-25T18:07:28.625Z,9.53
2018-02-25T18:09:56.146Z,4.37
2018-02-25T18:12:23.705Z,5.57
2018-02-25T18:14:51.257Z,5.87
2018-02-25T18:17:18.802Z,6.93
2018-02-25T18:19:46.319Z,8.67
2018-02-25T18:22:13.880Z,5.10
2018-02-25T18:24:41.578Z,7.37
2018-02-25T18:27:09.125Z,8.43
2018-02-25T18:29:36.621Z,7.97
2018-02-25T18:32:04.169Z,7.63
2018-02-25T18:34:31.725Z,8.20
2018-02-25T18:36:59.285Z,6.70
2018-02-25T18:39:26.910Z,9.17
2018-02-25T18:41:54.449Z,7.53
2018-02-25T18:44:22.284Z,12.47
2018-02-25T18:46:50.648Z,8.33
2018-02-25T18:49:18.487Z,9.47
2018-02-25T18:51:45.988Z,9.33
2018-02-25T18:54:13.579Z,6.73
2018-02-25T18:56:42.397Z,10.67
2018-02-25T18:59:09.954Z,16.03
2018-02-25T19:01:39.028Z,10.37
2018-02-25T19:04:06.944Z,13.10
2018-02-25T19:06:36.008Z,12.00
2018-02-25T19:09:03.542Z,10.87
2018-02-25T19:11:31.165Z,10.90
2018-02-25T19:13:58.784Z,11.23
2018-02-25T19:16:26.320Z,8.63
2018-02-25T19:18:54.737Z,12.17
2018-02-25T19:21:22.288Z,11.50
2018-02-25T19:23:49.823Z,11.13
2018-02-25T19:26:18.123Z,10.70
2018-02-25T19:28:45.718Z,10.70
2018-02-25T19:31:13.284Z,9.80
2018-02-25T19:33:41.455Z,9.43
2018-02-25T19:36:14.841Z,6.23
2018-02-25T19:38:48.144Z,9.17
2018-02-25T19:41:21.379Z,9.73
2018-02-25T19:43:49.655Z,11.90
2018-02-25T19:46:17.267Z,13.10
2018-02-25T19:48:44.918Z,11.73
2018-02-25T19:51:12.495Z,12.63
2018-02-25T19:53:41.254Z,8.70
2018-02-25T19:56:08.986Z,8.90
2018-02-25T19:58:37.273Z,9.97
2018-02-25T20:01:04.858Z,10.47
2018-02-25T20:03:32.387Z,9.37
2018-02-25T20:06:00.979Z,8.20
2018-02-25T20:08:29.458Z,7.60
2018-02-25T20:10:57.035Z,10.07
2018-02-25T20:13:24.589Z,8.43
2018-02-25T20:15:52.242Z,15.30
2018-02-25T20:18:20.255Z,17.73
2018-02-25T20:20:48.819Z,11.97
2018-02-25T20:23:16.469Z,10.37
2018-02-25T20:25:44.117Z,10.63
2018-02-25T20:28:11.679Z,12.27
2018-02-25T20:30:40.488Z,12.77
2018-02-25T20:33:08.357Z,6.73
2018-02-25T20:35:35.997Z,10.23
2018-02-25T20:38:03.731Z,9.80
2018-02-25T20:40:31.265Z,11.67
2018-02-25T20:42:58.857Z,9.80
2018-02-25T20:45:27.392Z,12.93
2018-02-25T20:47:55.060Z,12.33
2018-02-25T20:50:22.628Z,11.50
2018-02-25T20:52:52.099Z,9.90
2018-02-25T20:55:19.887Z,14.37
2018-02-25T20:57:47.427Z,9.40
2018-02-25T21:00:15.037Z,11.60
2018-02-25T21:02:43.370Z,9.27
2018-02-25T21:05:11.242Z,13.40
2018-02-25T21:07:39.168Z,13.83
2018-02-25T21:10:07.502Z,11.17
2018-02-25T21:12:35.149Z,14.43
2018-02-25T21:15:02.741Z,14.40
2018-02-25T21:17:30.326Z,13.87
2018-02-25T21:19:57.888Z,16.30
2018-02-25T21:22:25.472Z,14.17
2018-02-25T21:24:53.470Z,15.10
2018-02-25T21:27:21.027Z,14.87
2018-02-25T21:29:48.810Z,13.57
2018-02-25T21:32:16.320Z,11.63
2018-02-25T21:34:44.024Z,18.93
2018-02-25T21:37:11.572Z,15.17
2018-02-25T21:39:39.096Z,13.23
2018-02-25T21:42:07.532Z,15.67
2018-02-25T21:44:35.323Z,16.43
2018-02-25T21:47:02.857Z,21.87
2018-02-25T21:49:30.427Z,17.17
2018-02-25T21:51:58.165Z,23.60
2018-02-25T21:54:31.252Z,17.17
2018-02-25T21:57:04.352Z,17.33
2018-02-25T21:59:37.506Z,17.47
2018-02-25T22:02:10.764Z,18.90
2018-02-25T22:04:38.399Z,19.70
2018-02-25T22:07:05.949Z,15.30
2018-02-25T22:09:33.499Z,16.17
2018-02-25T22:12:01.095Z,19.27
2018-02-25T22:14:28.622Z,20.17
2018-02-25T22:16:56.290Z,19.23
2018-02-25T22:19:24.088Z,20.10
2018-02-25T22:21:52.509Z,18.03
2018-02-25T22:24:20.141Z,18.67
2018-02-25T22:26:47.688Z,17.20
2018-02-25T22:29:15.181Z,21.97
2018-02-25T22:31:42.804Z,21.40
2018-02-25T22:34:10.319Z,15.20
2018-02-25T22:36:37.924Z,16.60
2018-02-25T22:39:05.552Z,17.93
2018-02-25T22:41:33.076Z,23.50
2018-02-25T22:44:00.769Z,23.23
2018-02-25T22:46:28.311Z,20.43
2018-02-25T22:48:55.989Z,18.87
2018-02-25T22:51:23.522Z,19.47
2018-02-25T22:53:51.970Z,25.10
2018-02-25T22:56:19.494Z,24.93
2018-02-25T22:58:47.105Z,23.60
2018-02-25T23:01:14.811Z,24.53
2018-02-25T23:03:42.339Z,26.30
2018-02-25T23:06:09.928Z,24.33
2018-02-25T23:08:38.010Z,25.33
2018-02-25T23:11:05.568Z,23.03
2018-02-25T23:13:33.191Z,20.30
2018-02-25T23:16:01.474Z,21.70
2018-02-25T23:18:29.782Z,24.10
2018-02-25T23:20:57.380Z,19.77
2018-02-25T23:23:25.208Z,24.13
2018-02-25T23:25:52.763Z,21.17
2018-02-25T23:28:20.361Z,21.63
2018-02-25T23:30:47.907Z,11.10
2018-02-25T23:33:15.446Z,16.90
2018-02-25T23:35:43.113Z,20.37
2018-02-25T23:38:10.787Z,18.47
2018-02-25T23:40:38.343Z,10.03
2018-02-25T23:43:05.861Z,11.77
2018-02-25T23:45:33.414Z,17.37
2018-02-25T23:48:02.420Z,16.07
2018-02-25T23:50:30.188Z,19.03
2018-02-25T23:52:58.173Z,20.57
2018-02-25T23:55:25.733Z,15.70
2018-02-25T23:57:53.413Z,9.03
